Terminal Aerodrome Forecast
Issued by NWS Atlanta, GA

Home | Current Version | Previous Version | Text Only | Print | Product List | Glossary On
Versions: 1 2 3 4 5 6 7 8 9 10 11 12 13 14 15 16 17 18 19 20 21 22 23 24 25 26 27 28 29 30 31 32 33
000
FTUS42 KFFC 201144
TAFAHN
TAF
KAHN 201144Z 2012/2112 05003KT P6SM -SHRA FEW035 OVC050
      TEMPO 2013/2015 5SM -SHRA BR BKN035
     FM201500 05005KT P6SM OVC035
     FM202000 08005KT P6SM BKN040
     FM202300 35004KT P6SM SCT050
     FM210700 05004KT 5SM BR OVC025
     FM211100 06005KT 4SM BR OVC004=

USA.gov is the U.S. government's official web portal to all federal, state and local government web resources and services.